M.v.jiaolong Spirit — C6WZ9 — position and weather

sailwx.info

Track history (hours):
 
Tides and Currents Weather Stations Pressure Air Temp Water Temp Dewpoint Dewpoint Depression Visibility Wind Speed Wind Dir Waves Ship Positions

M.v.jiaolong Spirit

Last reported at 2018-Aug-14 13:58 UTC. Time now 2018-Aug-14 15:18 UTC.
Position N 37°31' W 009°46'.

Length 271 m; draft 9.2 m.

Type: Tanker. MMSI: 309813000.

Date/timePositionNaut miles runAvg speedWind from/ knotsBaromVisibWave heightAir tempDewpointWater temp
2018-Aug-14 13:58N 37°31' W 009°46'510.1
2018-Aug-14 13:30N 37°36' W 009°47'21 9.5
2018-Aug-14 11:17N 37°56' W 009°53'4 9.2
2018-Aug-14 10:52N 38°00' W 009°54'4 9.5
2018-Aug-14 10:25N 38°04' W 009°55'12 9.8
2018-Aug-14 09:08N 38°17' W 009°59'2 8.4
2018-Aug-14 08:54N 38°18' W 009°59'3 7.9
2018-Aug-14 08:30N 38°21' W 010°00'4 7.7
2018-Aug-14 08:00N 38°25' W 010°02'4 7.5
2018-Aug-14 07:30N 38°29' W 010°03'9 9.3
2018-Aug-14 06:34N 38°37' W 010°05'1 9.9
2018-Aug-14 06:28N 38°38' W 010°05'5 9.4
2018-Aug-14 05:59N 38°43' W 010°06'6 9.2
2018-Aug-14 05:18N 38°49' W 010°06'3 9.6
2018-Aug-14 05:00N 38°52' W 010°06'5 9.5
2018-Aug-14 04:30N 38°57' W 010°06'4 9.1
2018-Aug-14 04:00N 39°01' W 010°06'4 8.5
2018-Aug-14 03:30N 39°05' W 010°06'4 8.9
2018-Aug-14 03:00N 39°10' W 010°06'5 9.0
2018-Aug-14 02:30N 39°14' W 010°06'5 9.8
2018-Aug-14 02:00N 39°19' W 010°07'5 9.9
2018-Aug-14 01:29N 39°24' W 010°07'5 9.9
2018-Aug-14 00:56N 39°30' W 010°07'4 9.7
2018-Aug-14 00:30N 39°34' W 010°07'110 4.7
2018-Aug-13 00:52N 41°23' W 010°32'1 1.9
2018-Aug-13 00:30N 41°23' W 010°32'35 1.1
2018-Aug-11 15:47N 41°57' W 010°47'1 1.3
2018-Aug-11 15:10N 41°57' W 010°47'0 1.4
2018-Aug-11 15:00N 41°58' W 010°47'1 1.3
2018-Aug-11 14:28N 41°58' W 010°47'  
2018-Aug-08 21:35N 49°48' W 003°27'112.1
2018-Aug-08 21:29N 49°49' W 003°25'611.9
2018-Aug-08 21:00N 49°52' W 003°17'711.5
2018-Aug-08 20:22N 49°55' W 003°08'411.1
2018-Aug-08 20:00N 49°58' W 003°02'610.5
2018-Aug-08 19:27N 50°00' W 002°54'710.0
2018-Aug-08 18:44N 50°02' W 002°43'116 8.7
2018-Aug-08 05:24N 50°33' E 000°12'3 8.8
2018-Aug-08 05:00N 50°34' E 000°18'4 8.3
2018-Aug-08 04:31N 50°35' E 000°24'5 8.1
2018-Aug-08 03:57N 50°36' E 000°31'4 8.6
2018-Aug-08 03:30N 50°37' E 000°36'5 9.0
2018-Aug-08 03:00N 50°39' E 000°43'5 9.5
2018-Aug-08 02:29N 50°42' E 000°49'510.0
2018-Aug-08 02:01N 50°45' E 000°55'510.1
2018-Aug-08 01:29N 50°48' E 001°02'510.2
2018-Aug-08 01:00N 50°50' E 001°09'510.4
2018-Aug-08 00:30N 50°53' E 001°15'510.3
2018-Aug-08 00:00N 50°57' E 001°21'5 9.9
2018-Aug-07 23:31N 51°01' E 001°26'5 9.3
2018-Aug-07 23:00N 51°04' E 001°32'4 8.4
2018-Aug-07 22:30N 51°07' E 001°36'4 8.0
2018-Aug-07 22:00N 51°10' E 001°41'4 8.1
2018-Aug-07 21:30N 51°13' E 001°45'4 7.9
2018-Aug-07 21:00N 51°16' E 001°48'4 8.1
2018-Aug-07 20:30N 51°20' E 001°51'4 8.3
2018-Aug-07 20:00N 51°24' E 001°54'4 8.0
2018-Aug-07 19:30N 51°27' E 001°57'4 8.6
2018-Aug-07 19:00N 51°30' E 002°01'5 9.4
2018-Aug-07 18:30N 51°34' E 002°07'510.1
2018-Aug-07 18:00N 51°38' E 002°12'510.5
2018-Aug-07 17:30N 51°41' E 002°18'510.6
2018-Aug-07 17:00N 51°45' E 002°24'510.7
2018-Aug-07 16:30N 51°49' E 002°30'510.8
2018-Aug-07 16:00N 51°53' E 002°35'31 9.4
2018-Aug-07 12:41N 52°03' E 003°24'310.4
2018-Aug-07 12:26N 52°03' E 003°28'410.1
2018-Aug-07 12:00N 52°04' E 003°35'3 6.2
2018-Aug-07 11:30N 52°05' E 003°39'2 4.7
2018-Aug-07 11:00N 52°08' E 003°41'0 0.1
2018-Aug-07 10:30N 52°08' E 003°41'0 0.0
2018-Aug-07 10:00N 52°08' E 003°41'0 0.0
2018-Aug-07 09:30N 52°08' E 003°41'0 0.0
2018-Aug-07 09:00N 52°08' E 003°41'0 0.0
2018-Aug-07 08:30N 52°08' E 003°41'0 0.1
2018-Aug-07 08:00N 52°08' E 003°41'0 0.3
2018-Aug-07 07:30N 52°08' E 003°40'0 0.3
2018-Aug-07 07:00N 52°07' E 003°40'0 0.1
2018-Aug-07 06:30N 52°07' E 003°40'0 0.0
2018-Aug-07 05:57N 52°07' E 003°41'0 0.0
2018-Aug-07 05:30N 52°07' E 003°41'0 0.1
2018-Aug-07 05:00N 52°07' E 003°40'0 0.0
2018-Aug-07 04:30N 52°07' E 003°41'0 0.0
2018-Aug-07 03:57N 52°07' E 003°41'0 0.0
2018-Aug-07 03:27N 52°07' E 003°41'0 0.0
2018-Aug-07 03:00N 52°07' E 003°41'0 0.0
2018-Aug-07 02:30N 52°07' E 003°41'0 0.0
2018-Aug-07 01:54N 52°07' E 003°40'0 0.0
2018-Aug-07 01:24N 52°07' E 003°40'0 0.3
2018-Aug-07 01:00N 52°07' E 003°40'0 0.2
2018-Aug-07 00:24N 52°08' E 003°41'0 0.1
2018-Aug-07 00:00N 52°08' E 003°41'0 0.0
2018-Aug-06 23:27N 52°08' E 003°41'0 0.1
2018-Aug-06 23:00N 52°08' E 003°41'0 0.0
2018-Aug-06 22:30N 52°08' E 003°41'0 0.0
2018-Aug-06 22:00N 52°08' E 003°41'0 0.0
2018-Aug-06 21:30N 52°08' E 003°41'0 0.0
2018-Aug-06 21:00N 52°08' E 003°41'0 0.0
2018-Aug-06 20:30N 52°08' E 003°41'0 0.0
2018-Aug-06 20:00N 52°08' E 003°41'0 0.3
2018-Aug-06 19:27N 52°07' E 003°41'0 0.4
2018-Aug-06 19:00N 52°07' E 003°41'0 0.1
2018-Aug-06 18:30N 52°07' E 003°41'0 0.0
2018-Aug-06 18:00N 52°07' E 003°41'0 0.0
2018-Aug-06 17:27N 52°07' E 003°41'0 0.0
2018-Aug-06 17:00N 52°07' E 003°41'0 0.0
2018-Aug-06 16:30N 52°07' E 003°41'0 0.0
2018-Aug-06 16:00N 52°07' E 003°41'0 0.0
2018-Aug-06 15:30N 52°07' E 003°41'0 0.0
2018-Aug-06 15:00N 52°07' E 003°41'0 0.0
2018-Aug-06 14:27N 52°07' E 003°41'0 0.0
2018-Aug-06 13:57N 52°07' E 003°41'0 0.0
2018-Aug-06 13:30N 52°07' E 003°41'0 0.0
2018-Aug-06 13:00N 52°07' E 003°41'0 0.2
2018-Aug-06 12:27N 52°07' E 003°41'0 0.3
2018-Aug-06 12:00N 52°08' E 003°41'0 0.1
2018-Aug-06 11:30N 52°08' E 003°41'0 0.0
2018-Aug-06 11:00N 52°08' E 003°41'0 0.0
2018-Aug-06 10:30N 52°08' E 003°41'0 0.0
2018-Aug-06 10:00N 52°08' E 003°41'0 0.0
2018-Aug-06 09:30N 52°08' E 003°41'0 0.0
2018-Aug-06 09:00N 52°08' E 003°41'0 0.0
2018-Aug-06 08:30N 52°08' E 003°41'0 0.0
2018-Aug-06 08:00N 52°08' E 003°41'0 0.0
2018-Aug-06 07:30N 52°08' E 003°41'0 0.0
2018-Aug-06 07:00N 52°08' E 003°41'0 0.1
2018-Aug-06 06:30N 52°08' E 003°41'0 0.2
2018-Aug-06 05:54N 52°08' E 003°40'0 0.3
2018-Aug-06 05:30N 52°07' E 003°40'0 0.0
2018-Aug-06 05:00N 52°07' E 003°40'0 0.0
2018-Aug-06 04:30N 52°07' E 003°40'0 0.0
2018-Aug-06 04:00N 52°07' E 003°40'0 0.0
2018-Aug-06 03:30N 52°07' E 003°40'0 0.0
2018-Aug-06 03:00N 52°07' E 003°40'0 0.0
2018-Aug-06 02:30N 52°07' E 003°40'0 0.0
2018-Aug-06 02:00N 52°07' E 003°40'0 0.0
2018-Aug-06 01:30N 52°07' E 003°40'0 0.1
2018-Aug-06 01:00N 52°07' E 003°40'0 0.0
2018-Aug-06 00:27N 52°07' E 003°40'0 0.0
2018-Aug-05 23:54N 52°07' E 003°40'0 0.0
2018-Aug-05 23:30N 52°07' E 003°40'0 0.1
2018-Aug-05 23:00N 52°08' E 003°40'0 0.1
2018-Aug-05 22:30N 52°08' E 003°40'0 0.1
2018-Aug-05 21:30N 52°08' E 003°41'0 0.1
2018-Aug-05 21:00N 52°08' E 003°41'0 0.0
2018-Aug-05 20:30N 52°08' E 003°41'0 0.0
2018-Aug-05 19:57N 52°08' E 003°41'0 0.1
2018-Aug-05 19:27N 52°08' E 003°41'0 0.3
2018-Aug-05 18:51N 52°07' E 003°41'0 0.3
2018-Aug-05 18:30N 52°07' E 003°41'0 0.2
2018-Aug-05 18:00N 52°07' E 003°41'0 0.0
2018-Aug-05 17:21N 52°07' E 003°41'0 0.0
2018-Aug-05 17:00N 52°07' E 003°41'0 0.0
2018-Aug-05 16:30N 52°07' E 003°41'0 0.0
2018-Aug-05 15:54N 52°07' E 003°41'0 0.0
2018-Aug-05 15:27N 52°07' E 003°41'0 0.0
2018-Aug-05 15:00N 52°07' E 003°41'0 0.0
2018-Aug-05 14:00N 52°07' E 003°41'0 0.0
2018-Aug-05 13:30N 52°07' E 003°41'0 0.0
2018-Aug-05 12:51N 52°07' E 003°41'0 0.0
2018-Aug-05 12:30N 52°07' E 003°41'0 0.0
2018-Aug-05 11:54N 52°07' E 003°41'0 0.0
2018-Aug-05 11:30N 52°07' E 003°41'0 0.1
2018-Aug-05 11:00N 52°07' E 003°41'0 0.2
2018-Aug-05 10:06N 52°08' E 003°41'0 0.1
2018-Aug-05 09:54N 52°08' E 003°41'0 0.1
2018-Aug-05 09:27N 52°08' E 003°41'0 0.0
2018-Aug-05 08:57N 52°08' E 003°41'0 0.0
2018-Aug-05 08:27N 52°08' E 003°41'0 0.0
2018-Aug-05 07:57N 52°08' E 003°41'0 0.0
2018-Aug-05 07:27N 52°08' E 003°41'0 0.0
2018-Aug-05 07:00N 52°08' E 003°41'0 0.2
2018-Aug-05 05:42N 52°07' E 003°41'0 0.1
2018-Aug-05 05:30N 52°07' E 003°41'0 0.1
2018-Aug-05 04:57N 52°07' E 003°41'0 0.1
2018-Aug-05 04:15N 52°07' E 003°41'0 0.0
2018-Aug-05 03:54N 52°07' E 003°41'0 0.0
2018-Aug-05 03:27N 52°07' E 003°41'0 0.0
2018-Aug-05 03:00N 52°07' E 003°41'0 0.0
2018-Aug-05 02:24N 52°07' E 003°41'0 0.0
2018-Aug-05 01:57N 52°07' E 003°41'0 0.0
2018-Aug-05 01:27N 52°07' E 003°41'0 0.0
2018-Aug-05 00:54N 52°07' E 003°41'0 0.0
2018-Aug-05 00:27N 52°07' E 003°41'0 0.0
2018-Aug-05 00:00N 52°07' E 003°41'0 0.0
2018-Aug-04 23:27N 52°07' E 003°41'0 0.0
2018-Aug-04 22:57N 52°07' E 003°41'0 0.0
2018-Aug-04 22:30N 52°07' E 003°41'0 0.0
2018-Aug-04 21:57N 52°07' E 003°41'0 0.1
2018-Aug-04 21:24N 52°07' E 003°41'0 0.1
2018-Aug-04 21:00N 52°07' E 003°41'0 0.1
2018-Aug-04 20:30N 52°07' E 003°41'0 0.1
2018-Aug-04 20:00N 52°07' E 003°41'0 0.0
2018-Aug-04 19:27N 52°07' E 003°41'0 0.0
2018-Aug-04 19:00N 52°07' E 003°41'0 0.0
2018-Aug-04 18:27N 52°07' E 003°41'0 0.1
2018-Aug-04 17:57N 52°07' E 003°41'0 0.1
2018-Aug-04 17:30N 52°07' E 003°41'0 0.1
2018-Aug-04 16:57N 52°07' E 003°41'0 0.1
2018-Aug-04 16:12N 52°07' E 003°41'0 0.1
2018-Aug-04 15:57N 52°07' E 003°41'0 0.0
2018-Aug-04 15:30N 52°07' E 003°41'0 0.0
2018-Aug-04 14:57N 52°07' E 003°41'0 0.0
2018-Aug-04 14:24N 52°07' E 003°41'  
Track history (hours):
 
Tides and Currents Weather Stations Pressure Air Temp Water Temp Dewpoint Dewpoint Depression Visibility Wind Speed Wind Dir Waves Ship Positions

M.v.jiaolong Spirit

Last reported at 2018-Aug-14 13:58 UTC. Time now 2018-Aug-14 15:18 UTC.
Position N 37°31' W 009°46'.

Length 271 m; draft 9.2 m.

Type: Tanker. MMSI: 309813000.

Date/timePositionNaut miles runAvg speedWind from/ knotsBaromVisibWave heightAir tempDewpointWater temp
2018-Aug-14 13:58N 37°31' W 009°46'510.1
2018-Aug-14 13:30N 37°36' W 009°47'21 9.5
2018-Aug-14 11:17N 37°56' W 009°53'4 9.2
2018-Aug-14 10:52N 38°00' W 009°54'4 9.5
2018-Aug-14 10:25N 38°04' W 009°55'12 9.8
2018-Aug-14 09:08N 38°17' W 009°59'2 8.4
2018-Aug-14 08:54N 38°18' W 009°59'3 7.9
2018-Aug-14 08:30N 38°21' W 010°00'4 7.7
2018-Aug-14 08:00N 38°25' W 010°02'4 7.5
2018-Aug-14 07:30N 38°29' W 010°03'9 9.3
2018-Aug-14 06:34N 38°37' W 010°05'1 9.9
2018-Aug-14 06:28N 38°38' W 010°05'5 9.4
2018-Aug-14 05:59N 38°43' W 010°06'6 9.2
2018-Aug-14 05:18N 38°49' W 010°06'3 9.6
2018-Aug-14 05:00N 38°52' W 010°06'5 9.5
2018-Aug-14 04:30N 38°57' W 010°06'4 9.1
2018-Aug-14 04:00N 39°01' W 010°06'4 8.5
2018-Aug-14 03:30N 39°05' W 010°06'4 8.9
2018-Aug-14 03:00N 39°10' W 010°06'5 9.0
2018-Aug-14 02:30N 39°14' W 010°06'5 9.8
2018-Aug-14 02:00N 39°19' W 010°07'5 9.9
2018-Aug-14 01:29N 39°24' W 010°07'5 9.9
2018-Aug-14 00:56N 39°30' W 010°07'4 9.7
2018-Aug-14 00:30N 39°34' W 010°07'110 4.7
2018-Aug-13 00:52N 41°23' W 010°32'1 1.9
2018-Aug-13 00:30N 41°23' W 010°32'35 1.1
2018-Aug-11 15:47N 41°57' W 010°47'1 1.3
2018-Aug-11 15:10N 41°57' W 010°47'0 1.4
2018-Aug-11 15:00N 41°58' W 010°47'1 1.3
2018-Aug-11 14:28N 41°58' W 010°47'  
2018-Aug-08 21:35N 49°48' W 003°27'112.1
2018-Aug-08 21:29N 49°49' W 003°25'611.9
2018-Aug-08 21:00N 49°52' W 003°17'711.5
2018-Aug-08 20:22N 49°55' W 003°08'411.1
2018-Aug-08 20:00N 49°58' W 003°02'610.5
2018-Aug-08 19:27N 50°00' W 002°54'710.0
2018-Aug-08 18:44N 50°02' W 002°43'116 8.7
2018-Aug-08 05:24N 50°33' E 000°12'3 8.8
2018-Aug-08 05:00N 50°34' E 000°18'4 8.3
2018-Aug-08 04:31N 50°35' E 000°24'5 8.1
2018-Aug-08 03:57N 50°36' E 000°31'4 8.6
2018-Aug-08 03:30N 50°37' E 000°36'5 9.0
2018-Aug-08 03:00N 50°39' E 000°43'5 9.5
2018-Aug-08 02:29N 50°42' E 000°49'510.0
2018-Aug-08 02:01N 50°45' E 000°55'510.1
2018-Aug-08 01:29N 50°48' E 001°02'510.2
2018-Aug-08 01:00N 50°50' E 001°09'510.4
2018-Aug-08 00:30N 50°53' E 001°15'510.3
2018-Aug-08 00:00N 50°57' E 001°21'5 9.9
2018-Aug-07 23:31N 51°01' E 001°26'5 9.3
2018-Aug-07 23:00N 51°04' E 001°32'4 8.4
2018-Aug-07 22:30N 51°07' E 001°36'4 8.0
2018-Aug-07 22:00N 51°10' E 001°41'4 8.1
2018-Aug-07 21:30N 51°13' E 001°45'4 7.9
2018-Aug-07 21:00N 51°16' E 001°48'4 8.1
2018-Aug-07 20:30N 51°20' E 001°51'4 8.3
2018-Aug-07 20:00N 51°24' E 001°54'4 8.0
2018-Aug-07 19:30N 51°27' E 001°57'4 8.6
2018-Aug-07 19:00N 51°30' E 002°01'5 9.4
2018-Aug-07 18:30N 51°34' E 002°07'510.1
2018-Aug-07 18:00N 51°38' E 002°12'510.5
2018-Aug-07 17:30N 51°41' E 002°18'510.6
2018-Aug-07 17:00N 51°45' E 002°24'510.7
2018-Aug-07 16:30N 51°49' E 002°30'510.8
2018-Aug-07 16:00N 51°53' E 002°35'31 9.4
2018-Aug-07 12:41N 52°03' E 003°24'310.4
2018-Aug-07 12:26N 52°03' E 003°28'410.1
2018-Aug-07 12:00N 52°04' E 003°35'3 6.2
2018-Aug-07 11:30N 52°05' E 003°39'2 4.7
2018-Aug-07 11:00N 52°08' E 003°41'0 0.1
2018-Aug-07 10:30N 52°08' E 003°41'0 0.0
2018-Aug-07 10:00N 52°08' E 003°41'0 0.0
2018-Aug-07 09:30N 52°08' E 003°41'0 0.0
2018-Aug-07 09:00N 52°08' E 003°41'0 0.0
2018-Aug-07 08:30N 52°08' E 003°41'0 0.1
2018-Aug-07 08:00N 52°08' E 003°41'0 0.3
2018-Aug-07 07:30N 52°08' E 003°40'0 0.3
2018-Aug-07 07:00N 52°07' E 003°40'0 0.1
2018-Aug-07 06:30N 52°07' E 003°40'0 0.0
2018-Aug-07 05:57N 52°07' E 003°41'0 0.0
2018-Aug-07 05:30N 52°07' E 003°41'0 0.1
2018-Aug-07 05:00N 52°07' E 003°40'0 0.0
2018-Aug-07 04:30N 52°07' E 003°41'0 0.0
2018-Aug-07 03:57N 52°07' E 003°41'0 0.0
2018-Aug-07 03:27N 52°07' E 003°41'0 0.0
2018-Aug-07 03:00N 52°07' E 003°41'0 0.0
2018-Aug-07 02:30N 52°07' E 003°41'0 0.0
2018-Aug-07 01:54N 52°07' E 003°40'0 0.0
2018-Aug-07 01:24N 52°07' E 003°40'0 0.3
2018-Aug-07 01:00N 52°07' E 003°40'0 0.2
2018-Aug-07 00:24N 52°08' E 003°41'0 0.1
2018-Aug-07 00:00N 52°08' E 003°41'0 0.0
2018-Aug-06 23:27N 52°08' E 003°41'0 0.1
2018-Aug-06 23:00N 52°08' E 003°41'0 0.0
2018-Aug-06 22:30N 52°08' E 003°41'0 0.0
2018-Aug-06 22:00N 52°08' E 003°41'0 0.0
2018-Aug-06 21:30N 52°08' E 003°41'0 0.0
2018-Aug-06 21:00N 52°08' E 003°41'0 0.0
2018-Aug-06 20:30N 52°08' E 003°41'0 0.0
2018-Aug-06 20:00N 52°08' E 003°41'0 0.3
2018-Aug-06 19:27N 52°07' E 003°41'0 0.4
2018-Aug-06 19:00N 52°07' E 003°41'0 0.1
2018-Aug-06 18:30N 52°07' E 003°41'0 0.0
2018-Aug-06 18:00N 52°07' E 003°41'0 0.0
2018-Aug-06 17:27N 52°07' E 003°41'0 0.0
2018-Aug-06 17:00N 52°07' E 003°41'0 0.0
2018-Aug-06 16:30N 52°07' E 003°41'0 0.0
2018-Aug-06 16:00N 52°07' E 003°41'0 0.0
2018-Aug-06 15:30N 52°07' E 003°41'0 0.0
2018-Aug-06 15:00N 52°07' E 003°41'0 0.0
2018-Aug-06 14:27N 52°07' E 003°41'0 0.0
2018-Aug-06 13:57N 52°07' E 003°41'0 0.0
2018-Aug-06 13:30N 52°07' E 003°41'0 0.0
2018-Aug-06 13:00N 52°07' E 003°41'0 0.2
2018-Aug-06 12:27N 52°07' E 003°41'0 0.3
2018-Aug-06 12:00N 52°08' E 003°41'0 0.1
2018-Aug-06 11:30N 52°08' E 003°41'0 0.0
2018-Aug-06 11:00N 52°08' E 003°41'0 0.0
2018-Aug-06 10:30N 52°08' E 003°41'0 0.0
2018-Aug-06 10:00N 52°08' E 003°41'0 0.0
2018-Aug-06 09:30N 52°08' E 003°41'0 0.0
2018-Aug-06 09:00N 52°08' E 003°41'0 0.0
2018-Aug-06 08:30N 52°08' E 003°41'0 0.0
2018-Aug-06 08:00N 52°08' E 003°41'0 0.0
2018-Aug-06 07:30N 52°08' E 003°41'0 0.0
2018-Aug-06 07:00N 52°08' E 003°41'0 0.1
2018-Aug-06 06:30N 52°08' E 003°41'0 0.2
2018-Aug-06 05:54N 52°08' E 003°40'0 0.3
2018-Aug-06 05:30N 52°07' E 003°40'0 0.0
2018-Aug-06 05:00N 52°07' E 003°40'0 0.0
2018-Aug-06 04:30N 52°07' E 003°40'0 0.0
2018-Aug-06 04:00N 52°07' E 003°40'0 0.0
2018-Aug-06 03:30N 52°07' E 003°40'0 0.0
2018-Aug-06 03:00N 52°07' E 003°40'0 0.0
2018-Aug-06 02:30N 52°07' E 003°40'0 0.0
2018-Aug-06 02:00N 52°07' E 003°40'0 0.0
2018-Aug-06 01:30N 52°07' E 003°40'0 0.1
2018-Aug-06 01:00N 52°07' E 003°40'0 0.0
2018-Aug-06 00:27N 52°07' E 003°40'0 0.0
2018-Aug-05 23:54N 52°07' E 003°40'0 0.0
2018-Aug-05 23:30N 52°07' E 003°40'0 0.1
2018-Aug-05 23:00N 52°08' E 003°40'0 0.1
2018-Aug-05 22:30N 52°08' E 003°40'0 0.1
2018-Aug-05 21:30N 52°08' E 003°41'0 0.1
2018-Aug-05 21:00N 52°08' E 003°41'0 0.0
2018-Aug-05 20:30N 52°08' E 003°41'0 0.0
2018-Aug-05 19:57N 52°08' E 003°41'0 0.1
2018-Aug-05 19:27N 52°08' E 003°41'0 0.3
2018-Aug-05 18:51N 52°07' E 003°41'0 0.3
2018-Aug-05 18:30N 52°07' E 003°41'0 0.2
2018-Aug-05 18:00N 52°07' E 003°41'0 0.0
2018-Aug-05 17:21N 52°07' E 003°41'0 0.0
2018-Aug-05 17:00N 52°07' E 003°41'0 0.0
2018-Aug-05 16:30N 52°07' E 003°41'0 0.0
2018-Aug-05 15:54N 52°07' E 003°41'0 0.0
2018-Aug-05 15:27N 52°07' E 003°41'0 0.0
2018-Aug-05 15:00N 52°07' E 003°41'0 0.0
2018-Aug-05 14:00N 52°07' E 003°41'0 0.0
2018-Aug-05 13:30N 52°07' E 003°41'0 0.0
2018-Aug-05 12:51N 52°07' E 003°41'0 0.0
2018-Aug-05 12:30N 52°07' E 003°41'0 0.0
2018-Aug-05 11:54N 52°07' E 003°41'0 0.0
2018-Aug-05 11:30N 52°07' E 003°41'0 0.1
2018-Aug-05 11:00N 52°07' E 003°41'0 0.2
2018-Aug-05 10:06N 52°08' E 003°41'0 0.1
2018-Aug-05 09:54N 52°08' E 003°41'0 0.1
2018-Aug-05 09:27N 52°08' E 003°41'0 0.0
2018-Aug-05 08:57N 52°08' E 003°41'0 0.0
2018-Aug-05 08:27N 52°08' E 003°41'0 0.0
2018-Aug-05 07:57N 52°08' E 003°41'0 0.0
2018-Aug-05 07:27N 52°08' E 003°41'0 0.0
2018-Aug-05 07:00N 52°08' E 003°41'0 0.2
2018-Aug-05 05:42N 52°07' E 003°41'0 0.1
2018-Aug-05 05:30N 52°07' E 003°41'0 0.1
2018-Aug-05 04:57N 52°07' E 003°41'0 0.1
2018-Aug-05 04:15N 52°07' E 003°41'0 0.0
2018-Aug-05 03:54N 52°07' E 003°41'0 0.0
2018-Aug-05 03:27N 52°07' E 003°41'0 0.0
2018-Aug-05 03:00N 52°07' E 003°41'0 0.0
2018-Aug-05 02:24N 52°07' E 003°41'0 0.0
2018-Aug-05 01:57N 52°07' E 003°41'0 0.0
2018-Aug-05 01:27N 52°07' E 003°41'0 0.0
2018-Aug-05 00:54N 52°07' E 003°41'0 0.0
2018-Aug-05 00:27N 52°07' E 003°41'0 0.0
2018-Aug-05 00:00N 52°07' E 003°41'0 0.0
2018-Aug-04 23:27N 52°07' E 003°41'0 0.0
2018-Aug-04 22:57N 52°07' E 003°41'0 0.0
2018-Aug-04 22:30N 52°07' E 003°41'0 0.0
2018-Aug-04 21:57N 52°07' E 003°41'0 0.1
2018-Aug-04 21:24N 52°07' E 003°41'0 0.1
2018-Aug-04 21:00N 52°07' E 003°41'0 0.1
2018-Aug-04 20:30N 52°07' E 003°41'0 0.1
2018-Aug-04 20:00N 52°07' E 003°41'0 0.0
2018-Aug-04 19:27N 52°07' E 003°41'0 0.0
2018-Aug-04 19:00N 52°07' E 003°41'0 0.0
2018-Aug-04 18:27N 52°07' E 003°41'0 0.1
2018-Aug-04 17:57N 52°07' E 003°41'0 0.1
2018-Aug-04 17:30N 52°07' E 003°41'0 0.1
2018-Aug-04 16:57N 52°07' E 003°41'0 0.1
2018-Aug-04 16:12N 52°07' E 003°41'0 0.1
2018-Aug-04 15:57N 52°07' E 003°41'0 0.0
2018-Aug-04 15:30N 52°07' E 003°41'0 0.0
2018-Aug-04 14:57N 52°07' E 003°41'0 0.0
2018-Aug-04 14:24N 52°07' E 003°41'  

Dump ship's entire track history